Time;durP1;ratioP1;P1;durP2;ratioP2;P2;SDS_P1;SDS_P2;PMS_P1;PMS_P2;Temp;Humidity;BMP_temperature;BMP_pressure;BME280_temperature;BME280_humidity;BME280_pressure;Samples;Min_cycle;Max_cycle;Signal;HPM_P1;HPM_P2
2021/03/23 00:00:17;;;;;;;2.50;2.40;;;;;;;5.42;68.70;102229.66;5317913;26;20474;-70
2021/03/23 00:02:55;;;;;;;3.00;2.90;;;;;;;5.43;68.47;102226.16;5333751;26;20378;-70
2021/03/23 00:05:21;;;;;;;2.40;2.30;;;;;;;5.45;68.31;102223.56;5319490;26;20038;-70
2021/03/23 00:07:46;;;;;;;3.00;2.90;;;;;;;5.45;68.28;102219.19;5317106;26;20050;-70
2021/03/23 00:10:12;;;;;;;2.50;2.40;;;;;;;5.44;68.20;102227.91;5316961;26;20141;-70
2021/03/23 00:12:37;;;;;;;3.70;3.53;;;;;;;5.45;68.14;102227.00;5318416;26;20055;-70
2021/03/23 00:15:12;;;;;;;2.80;2.70;;;;;;;5.42;68.51;102218.38;5332385;26;20050;-70
2021/03/23 00:17:37;;;;;;;2.97;2.87;;;;;;;5.45;68.17;102227.00;5336884;26;20061;-70
2021/03/23 00:20:05;;;;;;;2.58;2.47;;;;;;;5.45;68.37;102223.56;5331521;26;20042;-70
2021/03/23 00:22:34;;;;;;;3.20;2.75;;;;;;;5.34;68.49;102218.44;5318894;26;20038;-70
2021/03/23 00:25:00;;;;;;;2.80;2.70;;;;;;;5.41;68.57;102235.72;5330641;26;20035;-70
2021/03/23 00:27:25;;;;;;;2.45;2.35;;;;;;;5.39;68.59;102229.66;5336067;26;20046;-70
2021/03/23 00:29:50;;;;;;;2.83;2.72;;;;;;;5.38;68.54;102233.16;5323173;26;20031;-70
2021/03/23 00:32:16;;;;;;;2.55;2.45;;;;;;;4.97;68.62;102166.56;5319221;26;20095;-70
2021/03/23 00:34:41;;;;;;;2.35;2.25;;;;;;;5.36;68.70;102233.16;5326717;26;20204;-71
2021/03/23 00:37:06;;;;;;;4.18;2.90;;;;;;;5.36;68.59;102229.69;5318058;26;20243;-71
2021/03/23 00:39:32;;;;;;;2.70;2.60;;;;;;;5.35;68.99;102235.75;5324213;26;20128;-72
2021/03/23 00:41:57;;;;;;;2.60;2.50;;;;;;;5.34;69.66;102231.44;5318791;26;20038;-72
2021/03/23 00:44:23;;;;;;;3.50;3.40;;;;;;;5.22;69.29;102206.34;5324606;26;20045;-72
2021/03/23 00:46:48;;;;;;;2.67;2.58;;;;;;;5.04;68.82;102189.09;5338842;26;20222;-71
2021/03/23 00:49:13;;;;;;;2.95;2.85;;;;;;;5.24;69.52;102230.63;5330350;26;20077;-70
2021/03/23 00:51:39;;;;;;;2.50;2.40;;;;;;;4.88;69.59;102180.50;5317798;26;20051;-71
2021/03/23 00:54:04;;;;;;;2.60;2.50;;;;;;;4.96;70.34;102214.28;5323531;26;20100;-72
2021/03/23 00:56:30;;;;;;;3.25;3.08;;;;;;;4.78;70.73;102210.88;5317140;26;20064;-71
2021/03/23 00:58:55;;;;;;;3.20;3.00;;;;;;;4.67;71.09;102219.56;5322366;26;20571;-72
2021/03/23 01:01:20;;;;;;;2.92;2.78;;;;;;;4.52;71.51;102216.16;5319586;26;20035;-72
2021/03/23 01:03:46;;;;;;;2.30;2.20;;;;;;;3.15;71.74;102042.34;5319952;26;20038;-70
2021/03/23 01:06:11;;;;;;;2.72;2.53;;;;;;;4.24;72.26;102214.50;5338233;26;20528;-69
2021/03/23 01:08:36;;;;;;;2.80;2.70;;;;;;;4.11;73.08;102218.81;5336383;26;20748;-69
2021/03/23 01:11:02;;;;;;;2.50;2.40;;;;;;;3.98;73.74;102217.97;5317031;26;20058;-71
2021/03/23 01:13:27;;;;;;;2.83;2.72;;;;;;;3.93;73.82;102253.47;5318858;26;20452;-70
2021/03/23 01:15:52;;;;;;;2.65;2.55;;;;;;;3.52;74.29;102173.81;5317683;26;20035;-69
2021/03/23 01:18:18;;;;;;;2.40;2.30;;;;;;;3.77;74.50;102231.84;5320476;26;20701;-69
2021/03/23 01:20:43;;;;;;;2.95;2.85;;;;;;;3.67;74.18;102223.16;5321910;26;20043;-69
2021/03/23 01:23:08;;;;;;;2.62;2.45;;;;;;;3.68;75.09;102226.63;5322040;26;20061;-70
2021/03/23 01:25:34;;;;;;;2.50;2.40;;;;;;;3.64;75.02;102230.94;5322374;26;20030;-72
2021/03/23 01:27:59;;;;;;;3.42;3.22;;;;;;;3.61;75.20;102233.56;5320309;26;20054;-69
2021/03/23 01:30:26;;;;;;;2.50;2.40;;;;;;;3.59;76.41;102225.75;5321899;26;20092;-69
2021/03/23 01:32:52;;;;;;;2.95;2.80;;;;;;;3.58;75.80;102225.75;5322063;26;20046;-71
2021/03/23 01:35:17;;;;;;;2.60;2.50;;;;;;;3.62;75.83;102234.41;5335003;26;20051;-71
2021/03/23 01:37:43;;;;;;;2.53;2.42;;;;;;;3.54;76.23;102231.78;5335944;26;21116;-71
2021/03/23 01:40:09;;;;;;;2.40;2.30;;;;;;;3.70;75.50;102232.69;5322721;26;20125;-71
2021/03/23 01:43:02;;;;;;;3.10;3.00;;;;;;;3.73;76.18;102219.72;5316913;26;20081;-71
2021/03/23 01:45:34;;;;;;;2.30;2.20;;;;;;;3.76;76.29;102223.16;5333349;26;20039;-71
2021/03/23 01:48:01;;;;;;;2.30;2.20;;;;;;;3.82;75.42;102227.50;5337134;26;20105;-70
2021/03/23 01:50:27;;;;;;;2.60;2.50;;;;;;;3.79;75.98;102212.78;5318795;26;20141;-71
2021/03/23 01:53:03;;;;;;;2.60;2.50;;;;;;;3.87;75.97;102228.38;5318999;26;20040;-71
2021/03/23 01:55:29;;;;;;;2.70;2.60;;;;;;;3.82;75.49;102214.50;5337149;26;20043;-71
2021/03/23 01:57:54;;;;;;;2.67;2.58;;;;;;;3.89;75.49;102212.78;5337284;26;20502;-71
2021/03/23 02:00:20;;;;;;;2.50;2.40;;;;;;;3.92;75.75;102218.84;5321768;26;20046;-71
2021/03/23 02:02:46;;;;;;;2.58;2.47;;;;;;;3.86;76.02;102202.41;5335648;26;20044;-71
2021/03/23 02:05:18;;;;;;;2.55;2.45;;;;;;;3.70;75.75;102181.63;5338092;26;20030;-71
2021/03/23 02:07:43;;;;;;;2.50;2.40;;;;;;;3.86;75.83;102203.25;5337094;26;20046;-71
2021/03/23 02:10:09;;;;;;;3.28;3.12;;;;;;;4.04;75.51;102227.50;5335997;26;20582;-71
2021/03/23 02:12:34;;;;;;;2.67;2.58;;;;;;;4.06;75.52;102231.81;5337738;26;20048;-71
2021/03/23 02:15:00;;;;;;;2.53;2.42;;;;;;;4.09;75.69;102221.44;5337639;26;20086;-71
2021/03/23 02:17:35;;;;;;;2.50;2.40;;;;;;;4.13;75.42;102224.88;5338101;26;20038;-71
2021/03/23 02:20:15;;;;;;;2.80;2.70;;;;;;;4.17;75.92;102222.31;5337497;26;20132;-71
2021/03/23 02:22:45;;;;;;;3.35;3.15;;;;;;;3.90;76.03;102170.38;5338099;26;20051;-70
2021/03/23 02:25:22;;;;;;;2.50;2.40;;;;;;;4.23;75.75;102229.22;5322425;26;20129;-71
2021/03/23 02:27:47;;;;;;;6.47;2.75;;;;;;;4.27;75.44;102223.16;5320621;26;20061;-71
2021/03/23 02:30:17;;;;;;;2.40;2.30;;;;;;;4.27;75.82;102228.34;5329835;26;20064;-71
2021/03/23 02:32:42;;;;;;;2.55;2.45;;;;;;;4.34;75.83;102227.47;5320199;26;20524;-71
2021/03/23 02:35:08;;;;;;;2.72;2.62;;;;;;;4.29;76.23;102215.34;5318503;26;20062;-71
2021/03/23 02:37:33;;;;;;;2.40;2.30;;;;;;;4.33;75.88;102225.75;5338536;26;20810;-71
2021/03/23 02:39:59;;;;;;;3.85;3.65;;;;;;;4.37;76.23;102223.97;5335307;26;20043;-70
2021/03/23 02:42:24;;;;;;;2.47;2.37;;;;;;;4.33;76.62;102220.53;5356172;26;20378;-71
2021/03/23 02:44:49;;;;;;;2.60;2.50;;;;;;;4.31;76.14;102230.09;5324564;26;20177;-71
2021/03/23 02:47:16;;;;;;;3.12;3.03;;;;;;;4.33;75.93;102223.16;5320173;26;20078;-71
2021/03/23 02:49:41;;;;;;;3.05;2.95;;;;;;;4.32;76.54;102224.00;5317182;26;20165;-71
2021/03/23 02:52:07;;;;;;;2.50;2.40;;;;;;;4.36;76.07;102219.66;5338679;26;20035;-71
2021/03/23 02:54:33;;;;;;;3.42;3.22;;;;;;;4.36;75.76;102215.31;5327161;26;20478;-71
2021/03/23 02:56:58;;;;;;;2.70;2.60;;;;;;;4.35;75.88;102218.81;5337243;26;20049;-71
2021/03/23 02:59:23;;;;;;;3.25;3.15;;;;;;;4.35;75.82;102217.91;5336451;26;20701;-71
2021/03/23 03:01:49;;;;;;;2.60;2.50;;;;;;;4.38;75.66;102211.00;5337299;26;20088;-71
2021/03/23 03:04:14;;;;;;;3.05;2.60;;;;;;;4.38;75.65;102207.53;5336469;26;20044;-71
2021/03/23 03:06:39;;;;;;;2.53;2.42;;;;;;;4.40;75.96;102217.06;5337759;26;20031;-71
2021/03/23 03:09:05;;;;;;;2.50;2.40;;;;;;;4.42;75.60;102213.59;5340462;26;20052;-71
2021/03/23 03:11:31;;;;;;;3.10;2.90;;;;;;;4.39;75.84;102215.34;5358264;26;20039;-71
2021/03/23 03:13:56;;;;;;;2.50;2.40;;;;;;;3.94;75.54;102144.38;5340816;26;20233;-71
2021/03/23 03:16:21;;;;;;;2.78;2.67;;;;;;;4.34;75.56;102211.88;5339395;26;20042;-71
2021/03/23 03:18:47;;;;;;;2.47;2.37;;;;;;;4.43;75.45;102220.50;5341362;26;20462;-71
2021/03/23 03:21:12;;;;;;;2.40;2.30;;;;;;;3.20;75.58;102012.06;5340782;26;20047;-71
2021/03/23 03:23:38;;;;;;;3.12;2.97;;;;;;;4.45;75.07;102219.66;5340725;26;20035;-71
2021/03/23 03:26:05;;;;;;;2.72;2.62;;;;;;;4.44;75.55;102215.31;5341507;26;20043;-71
2021/03/23 03:28:30;;;;;;;3.15;2.97;;;;;;;4.47;75.37;102223.13;5340723;26;20668;-70
2021/03/23 03:30:55;;;;;;;2.67;2.58;;;;;;;3.85;75.19;102112.34;5318974;26;20039;-71
2021/03/23 03:33:21;;;;;;;2.42;2.33;;;;;;;4.48;75.81;102217.03;5322485;26;20035;-71
2021/03/23 03:35:46;;;;;;;2.97;2.87;;;;;;;4.49;75.33;102215.28;5321012;26;20057;-70
2021/03/23 03:38:13;;;;;;;2.28;2.17;;;;;;;4.49;75.69;102210.97;5322273;26;20157;-71
2021/03/23 03:40:40;;;;;;;2.62;2.53;;;;;;;4.40;75.35;102191.06;5323333;26;20627;-71
2021/03/23 03:43:06;;;;;;;3.22;2.92;;;;;;;4.19;75.61;102147.81;5339106;26;20095;-71
2021/03/23 03:45:32;;;;;;;2.60;2.50;;;;;;;4.49;75.52;102195.38;5322589;26;20042;-71
2021/03/23 03:47:57;;;;;;;2.60;2.50;;;;;;;4.52;75.14;102197.97;5321848;26;20058;-71
2021/03/23 03:50:24;;;;;;;2.40;2.30;;;;;;;4.56;75.53;102193.63;5338537;26;20579;-71
2021/03/23 03:52:50;;;;;;;2.60;2.50;;;;;;;4.57;75.29;102198.81;5321995;26;20070;-71
2021/03/23 03:55:16;;;;;;;2.92;2.83;;;;;;;4.59;75.14;102196.19;5337036;26;20513;-71
2021/03/23 03:57:41;;;;;;;2.72;2.62;;;;;;;4.60;74.94;102192.75;5340083;26;20048;-70
2021/03/23 04:00:07;;;;;;;2.40;2.30;;;;;;;4.66;74.67;102192.72;5327282;26;20039;-71
2021/03/23 04:02:33;;;;;;;2.92;2.78;;;;;;;4.65;74.70;102187.50;5339014;26;20034;-71
2021/03/23 04:04:58;;;;;;;2.40;2.30;;;;;;;4.65;75.04;102185.81;5329014;26;20049;-71
2021/03/23 04:07:23;;;;;;;2.60;2.50;;;;;;;4.27;74.77;102121.81;5322307;26;20034;-71
2021/03/23 04:09:49;;;;;;;2.62;2.53;;;;;;;4.66;74.67;102187.53;5331455;26;20039;-71
2021/03/23 04:12:14;;;;;;;2.95;2.85;;;;;;;4.65;74.89;102191.00;5322231;26;20341;-71
2021/03/23 04:14:40;;;;;;;2.78;2.67;;;;;;;4.65;74.89;102185.81;5331886;26;20558;-71
2021/03/23 04:17:05;;;;;;;3.47;2.80;;;;;;;4.62;74.92;102178.00;5339962;26;20030;-71
2021/03/23 04:19:30;;;;;;;2.40;2.30;;;;;;;4.63;75.08;102184.94;5331144;26;20154;-71
2021/03/23 04:21:56;;;;;;;2.60;2.50;;;;;;;4.61;74.90;102184.09;5340754;26;20038;-71
2021/03/23 04:24:21;;;;;;;3.50;3.20;;;;;;;4.60;75.16;102185.81;5333815;26;20104;-71
2021/03/23 04:26:47;;;;;;;2.40;2.30;;;;;;;4.63;75.15;102182.34;5324356;26;20646;-71
2021/03/23 04:29:12;;;;;;;2.55;2.45;;;;;;;4.67;74.63;102183.19;5325628;26;20061;-71
2021/03/23 04:31:39;;;;;;;2.55;2.45;;;;;;;4.66;74.40;102186.66;5321105;26;20493;-71
2021/03/23 04:34:05;;;;;;;2.50;2.40;;;;;;;4.60;74.39;102187.53;5320854;26;20217;-71
2021/03/23 04:36:30;;;;;;;3.75;3.40;;;;;;;4.31;74.35;102141.72;5340998;26;20378;-71
2021/03/23 04:38:55;;;;;;;2.42;2.33;;;;;;;4.55;74.03;102178.87;5337280;26;20108;-71
2021/03/23 04:41:21;;;;;;;2.45;2.35;;;;;;;4.59;74.52;102196.19;5322347;26;20520;-71
2021/03/23 04:43:47;;;;;;;2.70;2.60;;;;;;;4.59;74.46;102185.78;5320739;26;20321;-71
2021/03/23 04:46:14;;;;;;;3.10;3.00;;;;;;;4.57;73.99;102185.81;5322089;26;20587;-70
2021/03/23 04:48:39;;;;;;;3.37;3.28;;;;;;;3.43;73.43;101989.53;5320482;26;20595;-70
2021/03/23 04:51:06;;;;;;;2.50;2.40;;;;;;;4.55;73.47;102192.75;5341977;26;20034;-71
2021/03/23 04:53:33;;;;;;;2.70;2.60;;;;;;;4.57;73.54;102203.13;5342249;26;20057;-71
2021/03/23 04:55:59;;;;;;;2.55;2.45;;;;;;;4.57;74.07;102200.53;5320928;26;20114;-71
2021/03/23 04:58:24;;;;;;;2.60;2.50;;;;;;;4.51;74.11;102197.97;5322811;26;20069;-71
2021/03/23 05:00:50;;;;;;;3.30;3.10;;;;;;;4.55;73.71;102197.06;5321658;26;20043;-71
2021/03/23 05:03:16;;;;;;;2.70;2.60;;;;;;;4.51;73.74;102185.84;5321797;26;20488;-71
2021/03/23 05:05:42;;;;;;;2.50;2.40;;;;;;;4.58;74.03;102197.09;5320885;26;20623;-71
2021/03/23 05:08:07;;;;;;;2.58;2.47;;;;;;;4.58;74.07;102194.47;5323408;26;20049;-71
2021/03/23 05:10:32;;;;;;;2.60;2.50;;;;;;;4.46;73.81;102186.72;5338402;26;21122;-70
2021/03/23 05:12:58;;;;;;;2.60;2.50;;;;;;;4.61;74.19;102194.50;5322870;26;20039;-71
2021/03/23 05:15:23;;;;;;;2.40;2.30;;;;;;;4.47;73.80;102168.53;5337030;26;20397;-69
2021/03/23 05:17:48;;;;;;;3.50;3.30;;;;;;;4.68;73.80;102196.19;5342118;26;20039;-70
2021/03/23 05:20:14;;;;;;;2.80;2.67;;;;;;;4.68;74.29;102195.31;5325367;26;20757;-71
2021/03/23 05:22:39;;;;;;;3.47;3.05;;;;;;;4.68;74.28;102206.59;5340684;26;20062;-70
2021/03/23 05:25:05;;;;;;;2.60;2.50;;;;;;;4.67;74.11;102201.38;5328815;26;20092;-71
2021/03/23 05:27:31;;;;;;;2.40;2.30;;;;;;;4.68;74.12;102198.78;5322916;26;20212;-70
2021/03/23 05:29:56;;;;;;;2.70;2.60;;;;;;;4.70;74.22;102198.78;5334925;26;20049;-71
2021/03/23 05:32:21;;;;;;;2.40;2.30;;;;;;;4.40;74.18;102143.41;5321201;26;20038;-71
2021/03/23 05:34:47;;;;;;;2.60;2.50;;;;;;;4.73;74.13;102201.34;5333286;26;20542;-70
2021/03/23 05:37:12;;;;;;;2.50;2.40;;;;;;;4.76;74.01;102202.22;5341168;26;20058;-69
2021/03/23 05:39:37;;;;;;;2.50;2.40;;;;;;;4.77;74.08;102203.97;5333053;26;20039;-69
2021/03/23 05:42:04;;;;;;;2.72;2.62;;;;;;;4.81;73.77;102207.38;5341949;26;20043;-69
2021/03/23 05:44:52;;;;;;;3.33;3.22;;;;;;;4.84;73.51;102206.53;5360386;26;20627;-69
2021/03/23 05:47:19;;;;;;;2.50;2.40;;;;;;;4.85;73.57;102203.03;5359271;26;20629;-69
2021/03/23 05:49:55;;;;;;;2.90;2.80;;;;;;;4.87;73.13;102209.09;5330635;26;20485;-68
2021/03/23 05:52:29;;;;;;;3.10;2.90;;;;;;;4.88;73.48;102216.06;5342592;26;20050;-70
2021/03/23 05:54:59;;;;;;;2.90;2.80;;;;;;;4.88;73.27;102209.09;5354643;26;20043;-68
2021/03/23 05:57:45;;;;;;;2.87;2.78;;;;;;;4.87;73.33;102212.59;5341142;26;20176;-70
2021/03/23 06:00:22;;;;;;;2.70;2.60;;;;;;;4.83;73.66;102217.78;5341772;26;20069;-68
2021/03/23 06:03:12;;;;;;;3.42;3.22;;;;;;;4.83;73.49;102221.28;5341510;26;20053;-69
2021/03/23 06:05:44;;;;;;;2.85;2.75;;;;;;;4.88;73.63;102223.84;5343030;26;20161;-68
2021/03/23 06:08:33;;;;;;;2.85;2.75;;;;;;;4.91;73.59;102227.31;5322481;26;20390;-69
2021/03/23 06:11:04;;;;;;;2.50;2.40;;;;;;;4.96;73.52;102222.09;5315852;26;20046;-68
2021/03/23 06:13:37;;;;;;;3.05;2.95;;;;;;;5.00;73.69;102223.81;5357568;26;20034;-69
2021/03/23 06:16:24;;;;;;;2.50;2.40;;;;;;;5.07;73.08;102219.41;5318194;26;20053;-68
2021/03/23 06:19:01;;;;;;;2.83;2.72;;;;;;;5.11;72.96;102216.81;5357409;26;20057;-68
2021/03/23 06:21:35;;;;;;;2.80;2.70;;;;;;;5.16;73.07;102219.38;5319441;26;20043;-69
2021/03/23 06:24:46;;;;;;;2.67;2.58;;;;;;;5.23;73.21;102213.25;5319094;26;20031;-69
2021/03/23 06:27:20;;;;;;;2.60;2.50;;;;;;;5.31;72.56;102213.22;5293484;26;20153;-68
2021/03/23 06:30:12;;;;;;;2.80;2.70;;;;;;;5.35;72.37;102208.00;5318683;26;20661;-69
2021/03/23 06:32:51;;;;;;;2.80;2.70;;;;;;;5.42;71.59;102206.22;5353210;26;20122;-69
2021/03/23 06:35:27;;;;;;;3.42;3.30;;;;;;;5.50;71.59;102207.03;5318068;26;20049;-68
2021/03/23 06:37:52;;;;;;;3.42;3.22;;;;;;;5.56;71.30;102207.00;5317739;26;20031;-68
2021/03/23 06:40:22;;;;;;;2.50;2.40;;;;;;;5.60;70.73;102216.50;5333295;26;20321;-69
2021/03/23 06:42:50;;;;;;;4.70;3.33;;;;;;;5.64;69.58;102211.28;5334928;26;20181;-68
2021/03/23 06:45:21;;;;;;;2.95;2.80;;;;;;;5.72;69.74;102217.31;5318416;26;20047;-69
2021/03/23 06:47:47;;;;;;;2.85;2.75;;;;;;;5.64;69.69;102185.25;5356581;26;20488;-69
2021/03/23 06:50:23;;;;;;;2.70;2.60;;;;;;;5.58;69.26;102167.94;5335513;26;20385;-69
2021/03/23 06:53:03;;;;;;;2.80;2.70;;;;;;;5.90;68.77;102218.91;5362235;26;20054;-69
2021/03/23 06:55:28;;;;;;;2.53;2.42;;;;;;;5.97;68.66;102224.09;5319451;26;20063;-68
2021/03/23 06:57:54;;;;;;;5.32;5.07;;;;;;;6.04;68.35;102227.50;5315538;26;20205;-68
2021/03/23 07:00:31;;;;;;;2.50;2.40;;;;;;;6.09;68.06;102235.25;5316215;26;20047;-68
2021/03/23 07:03:10;;;;;;;2.60;2.50;;;;;;;6.14;67.91;102241.31;5333515;26;20056;-68
2021/03/23 07:05:41;;;;;;;3.20;2.75;;;;;;;5.88;67.16;102189.37;5334989;26;20138;-67
2021/03/23 07:08:09;;;;;;;2.80;2.70;;;;;;;6.19;66.86;102250.84;5319393;26;20055;-68
2021/03/23 07:11:02;;;;;;;3.10;3.00;;;;;;;6.21;66.78;102256.00;5354005;26;20039;-68
2021/03/23 07:13:28;;;;;;;2.55;2.45;;;;;;;6.26;67.39;102253.37;5340792;26;20042;-67
2021/03/23 07:16:12;;;;;;;3.25;3.10;;;;;;;6.27;66.80;102252.47;5359614;26;20690;-68
2021/03/23 07:18:42;;;;;;;2.92;2.83;;;;;;;6.29;66.60;102256.78;5356682;26;20042;-67
2021/03/23 07:21:15;;;;;;;5.03;3.00;;;;;;;6.30;66.47;102255.94;5323709;26;20043;-67
2021/03/23 07:23:44;;;;;;;2.70;2.60;;;;;;;6.36;66.45;102250.66;5321201;26;20053;-67
2021/03/23 07:26:36;;;;;;;2.70;2.60;;;;;;;6.33;66.32;102236.78;5321223;26;20645;-67
2021/03/23 07:29:11;;;;;;;2.80;2.70;;;;;;;6.42;65.12;102254.09;5315822;26;20051;-68
2021/03/23 07:31:42;;;;;;;2.80;2.70;;;;;;;6.47;66.21;102252.28;5353929;26;20625;-68
2021/03/23 07:34:13;;;;;;;2.78;2.67;;;;;;;6.50;65.70;102250.53;5319237;26;20504;-68
2021/03/23 07:36:45;;;;;;;2.83;2.72;;;;;;;5.38;65.61;102058.72;5335895;26;20050;-68
2021/03/23 07:39:28;;;;;;;3.25;3.15;;;;;;;6.66;64.86;102242.53;5329575;26;20053;-67
2021/03/23 07:42:06;;;;;;;2.65;2.55;;;;;;;6.67;65.12;102246.87;5335715;26;20088;-68
2021/03/23 07:44:40;;;;;;;3.53;3.33;;;;;;;6.75;64.15;102229.38;5335218;26;20843;-69
2021/03/23 07:47:13;;;;;;;2.97;2.87;;;;;;;6.83;64.38;102235.38;5336917;26;20133;-69
2021/03/23 07:49:41;;;;;;;3.05;2.95;;;;;;;6.75;64.08;102232.84;5336275;26;20069;-70
2021/03/23 07:52:26;;;;;;;2.80;2.65;;;;;;;6.78;64.12;102240.66;5335471;26;20138;-71
2021/03/23 07:54:51;;;;;;;2.78;2.67;;;;;;;6.85;64.25;102232.75;5335880;26;20043;-70
2021/03/23 07:57:44;;;;;;;3.92;3.62;;;;;;;6.87;64.24;102242.28;5334236;26;20050;-70
2021/03/23 08:00:36;;;;;;;3.40;3.20;;;;;;;6.91;64.59;102266.59;5342037;26;20046;-71
2021/03/23 08:03:37;;;;;;;2.90;2.80;;;;;;;7.09;63.97;102242.03;5352852;26;20131;-70
2021/03/23 08:06:19;;;;;;;3.00;2.90;;;;;;;7.31;63.37;102253.91;5319279;26;20039;-70
2021/03/23 08:09:04;;;;;;;2.90;2.80;;;;;;;7.40;63.11;102250.31;5355250;26;20330;-72
2021/03/23 08:11:44;;;;;;;2.70;2.60;;;;;;;7.41;62.31;102249.41;5321372;26;20135;-72
2021/03/23 08:14:25;;;;;;;3.47;3.28;;;;;;;7.50;63.11;102243.22;5356087;26;20042;-73
2021/03/23 08:17:00;;;;;;;2.97;2.87;;;;;;;6.52;61.32;102073.16;5336853;26;20586;-72
2021/03/23 08:19:34;;;;;;;3.35;3.17;;;;;;;7.63;62.09;102254.34;5355016;26;20280;-69
2021/03/23 08:22:54;;;;;;;3.03;2.92;;;;;;;7.83;61.61;102259.25;5337173;26;20117;-68
2021/03/23 08:25:37;;;;;;;3.05;2.90;;;;;;;8.02;61.64;102265.03;5305440;26;20804;-70
2021/03/23 08:28:13;;;;;;;2.90;2.80;;;;;;;7.66;61.48;102265.62;5355553;26;20051;-69
2021/03/23 08:31:05;;;;;;;2.80;2.70;;;;;;;7.83;60.67;102257.50;5336684;26;20058;-69
2021/03/23 08:33:42;;;;;;;3.00;2.90;;;;;;;8.10;60.53;102256.22;5356572;26;20771;-69
2021/03/23 08:36:20;;;;;;;2.90;2.80;;;;;;;7.97;60.35;102250.31;5338548;26;20573;-69
2021/03/23 08:39:13;;;;;;;2.87;2.78;;;;;;;8.13;59.66;102258.75;5353003;26;20053;-69
2021/03/23 08:41:44;;;;;;;3.55;3.35;;;;;;;8.07;60.84;102268.47;5357046;26;20044;-70
2021/03/23 08:44:19;;;;;;;3.28;3.17;;;;;;;8.06;60.72;102270.22;5353851;26;20132;-69
2021/03/23 08:46:45;;;;;;;2.70;2.60;;;;;;;8.28;59.93;102269.84;5318556;26;20116;-70
2021/03/23 08:49:16;;;;;;;3.12;3.03;;;;;;;8.42;59.78;102267.91;5321678;26;20342;-68
2021/03/23 08:51:44;;;;;;;3.20;3.10;;;;;;;8.51;59.73;102267.72;5318019;26;20473;-69
2021/03/23 08:54:10;;;;;;;3.25;3.15;;;;;;;8.68;59.91;102283.12;5315796;26;20061;-72
2021/03/23 08:56:41;;;;;;;3.05;2.92;;;;;;;8.72;59.47;102278.66;5336860;26;20084;-69
2021/03/23 08:59:35;;;;;;;3.12;3.03;;;;;;;8.99;58.56;102279.91;5353426;26;20035;-72
2021/03/23 09:02:01;;;;;;;2.80;2.70;;;;;;;8.55;59.26;102273.75;5355741;26;20043;-70
2021/03/23 09:04:30;;;;;;;3.65;3.50;;;;;;;8.52;58.34;102205.78;5316838;26;20089;-70
2021/03/23 09:07:00;;;;;;;2.90;2.80;;;;;;;8.77;60.08;102274.22;5340968;26;20043;-72
2021/03/23 09:09:26;;;;;;;3.12;3.03;;;;;;;8.99;59.29;102274.66;5334888;26;20066;-70
2021/03/23 09:12:33;;;;;;;3.60;3.40;;;;;;;9.13;58.64;102267.37;5357858;26;20061;-71
2021/03/23 09:15:08;;;;;;;3.92;3.72;;;;;;;9.51;57.12;102265.69;5340005;26;20038;-71
2021/03/23 09:17:36;;;;;;;3.55;3.45;;;;;;;9.42;57.83;102267.66;5359456;26;20073;-71
2021/03/23 09:20:35;;;;;;;3.53;3.42;;;;;;;9.48;56.28;102262.25;5357534;26;20663;-71
2021/03/23 09:23:15;;;;;;;3.03;2.92;;;;;;;9.59;56.93;102271.59;5344390;26;20035;-70
2021/03/23 09:25:56;;;;;;;3.10;3.00;;;;;;;9.77;55.62;102265.09;5351575;26;20052;-70
2021/03/23 09:28:34;;;;;;;2.90;2.80;;;;;;;9.76;55.64;102265.09;5346017;26;20166;-69
2021/03/23 09:31:13;;;;;;;3.22;3.12;;;;;;;10.07;54.81;102267.00;5380670;26;20088;-70
2021/03/23 09:33:48;;;;;;;3.03;2.92;;;;;;;9.84;55.20;102257.06;5345450;26;20534;-70
2021/03/23 09:36:15;;;;;;;3.60;3.47;;;;;;;9.72;55.12;102264.34;5361910;26;20549;-70
2021/03/23 09:39:01;;;;;;;3.58;3.35;;;;;;;9.96;55.74;102254.13;5381638;26;20046;-70
2021/03/23 09:41:33;;;;;;;3.10;3.00;;;;;;;10.12;54.24;102270.37;5321180;26;20066;-71
2021/03/23 09:44:04;;;;;;;3.37;3.28;;;;;;;10.08;55.85;102264.34;5338949;26;20091;-71
2021/03/23 09:46:48;;;;;;;3.40;3.20;;;;;;;10.14;54.48;102263.31;5359472;26;20138;-71
2021/03/23 09:49:48;;;;;;;3.42;3.33;;;;;;;10.42;54.81;102257.41;5340540;26;20405;-74
2021/03/23 09:52:25;;;;;;;3.35;3.25;;;;;;;10.34;53.14;102199.84;5334357;26;20073;-68
2021/03/23 09:54:53;;;;;;;3.10;3.00;;;;;;;10.95;52.14;102241.94;5341006;26;20056;-68
2021/03/23 09:57:21;;;;;;;3.60;3.50;;;;;;;10.78;54.05;102226.63;5359187;26;20622;-71
2021/03/23 09:59:48;;;;;;;3.30;3.15;;;;;;;10.41;54.73;102240.78;5341214;26;20042;-71
2021/03/23 10:02:17;;;;;;;3.30;3.20;;;;;;;11.01;53.49;102240.91;5341160;26;20054;-71
2021/03/23 10:04:43;;;;;;;4.12;3.72;;;;;;;11.17;52.42;102243.00;5359811;26;20169;-71
2021/03/23 10:07:32;;;;;;;3.47;3.37;;;;;;;10.30;51.59;102043.41;5321734;26;20051;-71
2021/03/23 10:10:10;;;;;;;3.60;3.45;;;;;;;12.01;50.28;102236.03;5344080;26;20467;-71
2021/03/23 10:12:36;;;;;;;3.35;3.25;;;;;;;12.17;48.95;102226.69;5340724;26;20355;-71
2021/03/23 10:15:35;;;;;;;3.90;3.70;;;;;;;12.45;48.87;102227.50;5335700;26;20035;-71
2021/03/23 10:18:09;;;;;;;4.43;4.22;;;;;;;12.21;48.70;102219.56;5324952;26;20042;-72
2021/03/23 10:20:34;;;;;;;3.40;3.30;;;;;;;12.45;48.88;102219.59;5323152;26;20065;-69
2021/03/23 10:23:00;;;;;;;4.03;3.83;;;;;;;12.15;47.45;102212.72;5340591;26;20645;-69
2021/03/23 10:25:25;;;;;;;3.60;3.42;;;;;;;11.44;50.03;102224.66;5322214;26;20038;-69
2021/03/23 10:27:51;;;;;;;4.70;4.40;;;;;;;10.63;50.51;102073.03;5340333;26;20474;-71
2021/03/23 10:30:17;;;;;;;3.78;3.58;;;;;;;11.14;51.75;102221.22;5321063;26;20045;-71
2021/03/23 10:32:51;;;;;;;4.10;3.90;;;;;;;11.73;50.09;102222.91;5340393;26;20740;-68
2021/03/23 10:35:26;;;;;;;3.95;3.75;;;;;;;11.46;51.40;102222.84;5321834;26;20374;-72
2021/03/23 10:38:14;;;;;;;4.18;3.97;;;;;;;11.45;51.12;102218.50;5337104;26;20051;-72
2021/03/23 10:40:39;;;;;;;3.50;3.40;;;;;;;10.83;51.32;102216.03;5356135;26;20143;-72
2021/03/23 10:43:05;;;;;;;4.00;3.80;;;;;;;11.10;52.72;102215.19;5321229;26;20047;-71
2021/03/23 10:45:43;;;;;;;3.50;3.40;;;;;;;10.83;52.82;102210.78;5336409;26;20459;-71
2021/03/23 10:48:16;;;;;;;3.60;3.40;;;;;;;10.32;54.41;102204.28;5339071;26;20051;-71
2021/03/23 10:50:44;;;;;;;3.20;3.10;;;;;;;10.14;55.46;102193.38;5360757;26;20660;-72
2021/03/23 10:53:16;;;;;;;3.33;3.22;;;;;;;10.16;54.35;102198.56;5338704;26;20101;-71
2021/03/23 10:55:49;;;;;;;3.30;3.20;;;;;;;10.56;54.34;102187.00;5330495;26;20134;-71
2021/03/23 10:58:19;;;;;;;3.33;3.22;;;;;;;10.58;53.39;102179.94;5340102;26;20046;-71
2021/03/23 11:00:45;;;;;;;3.30;3.20;;;;;;;10.43;53.64;102189.13;5345380;26;20042;-71
2021/03/23 11:03:24;;;;;;;3.42;3.33;;;;;;;10.45;55.68;102178.59;5344940;26;20106;-70
2021/03/23 11:05:51;;;;;;;4.37;3.75;;;;;;;11.06;53.81;102175.94;5348421;26;20038;-72
2021/03/23 11:08:16;;;;;;;3.20;3.10;;;;;;;11.50;52.99;102169.25;5340188;26;20478;-69
2021/03/23 11:10:42;;;;;;;3.20;3.10;;;;;;;11.53;51.16;102181.47;5340539;26;20051;-69
2021/03/23 11:13:08;;;;;;;4.18;3.97;;;;;;;11.23;51.07;102180.69;5358956;26;20046;-69
2021/03/23 11:15:38;;;;;;;3.47;3.33;;;;;;;11.26;52.96;102173.53;5318826;26;20077;-69
2021/03/23 11:18:05;;;;;;;3.28;3.12;;;;;;;11.39;51.35;102176.66;5320887;26;20038;-69
2021/03/23 11:20:35;;;;;;;3.90;3.70;;;;;;;11.92;51.42;102174.03;5334734;26;20612;-68
2021/03/23 11:23:03;;;;;;;3.97;3.70;;;;;;;11.61;51.38;102170.72;5318713;26;20167;-68
2021/03/23 11:25:29;;;;;;;3.22;3.12;;;;;;;12.18;50.85;102174.91;5332069;26;20058;-68
2021/03/23 11:27:54;;;;;;;3.55;3.45;;;;;;;12.38;48.99;102171.56;5334056;26;20051;-68
2021/03/23 11:30:20;;;;;;;3.20;3.10;;;;;;;12.72;49.38;102171.19;5316323;26;20744;-69
2021/03/23 11:32:46;;;;;;;3.78;3.58;;;;;;;11.49;47.80;101994.03;5336652;26;20042;-68
2021/03/23 11:35:12;;;;;;;3.33;3.22;;;;;;;12.12;49.37;102169.88;5333767;26;20039;-68
2021/03/23 11:37:38;;;;;;;3.40;3.30;;;;;;;11.92;49.20;102168.78;5334845;26;20062;-69
2021/03/23 11:40:04;;;;;;;3.80;3.60;;;;;;;11.52;50.88;102158.69;5334129;26;20137;-68
2021/03/23 11:42:32;;;;;;;4.00;3.80;;;;;;;12.27;48.78;102156.16;5315368;26;20074;-71
2021/03/23 11:45:22;;;;;;;3.40;3.30;;;;;;;12.79;46.94;102161.28;5334690;26;20040;-70
2021/03/23 11:47:59;;;;;;;4.15;3.95;;;;;;;12.38;47.41;102155.78;5339087;26;20043;-69